Time;durP1;ratioP1;P1;durP2;ratioP2;P2;SDS_P1;SDS_P2;PMS_P1;PMS_P2;Temp;Humidity;BMP_temperature;BMP_pressure;BME280_temperature;BME280_humidity;BME280_pressure;Samples;Min_cycle;Max_cycle;Signal;HPM_P1;HPM_P2
2023/12/19 00:00:32;;;;;;;1999.90;999.90;;;8.90;99.90;;;;;;5052316;28;20447;-75
2023/12/19 00:03:00;;;;;;;1999.90;999.90;;;9.00;99.90;;;;;;5051321;28;20919;-76
2023/12/19 00:05:27;;;;;;;1999.90;999.90;;;9.10;99.90;;;;;;5052738;28;20463;-74
2023/12/19 00:07:53;;;;;;;1999.90;999.90;;;9.10;99.90;;;;;;5050819;28;20444;-74
2023/12/19 00:10:20;;;;;;;1999.90;999.90;;;8.90;99.90;;;;;;5050593;28;20961;-74
2023/12/19 00:12:47;;;;;;;1999.90;999.90;;;8.90;99.90;;;;;;5052357;28;20417;-76
2023/12/19 00:15:13;;;;;;;1999.90;999.90;;;8.80;99.90;;;;;;5052323;28;20418;-76
2023/12/19 00:17:42;;;;;;;1999.90;999.90;;;8.70;99.90;;;;;;5053481;28;21041;-74
2023/12/19 00:20:12;;;;;;;1999.90;999.90;;;8.50;99.90;;;;;;5053257;28;20428;-75
2023/12/19 00:22:38;;;;;;;1999.90;999.90;;;8.60;99.90;;;;;;5048615;28;20422;-73
2023/12/19 00:25:06;;;;;;;1999.90;999.90;;;8.70;99.90;;;;;;5041782;28;20780;-76
2023/12/19 00:27:32;;;;;;;1999.90;999.90;;;8.70;99.90;;;;;;5050355;28;20417;-75
2023/12/19 00:29:59;;;;;;;1999.90;999.90;;;8.70;99.90;;;;;;5050746;28;20483;-74
2023/12/19 00:32:26;;;;;;;1999.90;999.90;;;8.70;99.90;;;;;;5052340;28;20409;-75
2023/12/19 00:34:54;;;;;;;1999.90;999.90;;;8.70;99.90;;;;;;5050853;28;20409;-76
2023/12/19 00:37:22;;;;;;;1999.90;999.90;;;8.60;99.90;;;;;;5050206;28;20899;-75
2023/12/19 00:39:48;;;;;;;1999.90;999.90;;;8.60;99.90;;;;;;5048433;28;20433;-75
2023/12/19 00:42:15;;;;;;;1999.90;999.90;;;8.50;99.90;;;;;;5051245;28;20464;-77
2023/12/19 00:44:42;;;;;;;1999.90;999.90;;;8.60;99.90;;;;;;5051914;28;20954;-75
2023/12/19 00:47:09;;;;;;;1999.90;999.90;;;8.50;99.90;;;;;;5051670;28;20409;-76
2023/12/19 00:49:35;;;;;;;1999.90;999.90;;;8.60;99.90;;;;;;5050838;28;20464;-75
2023/12/19 00:52:02;;;;;;;1999.90;999.90;;;8.60;99.90;;;;;;5051734;28;20423;-76
2023/12/19 00:54:30;;;;;;;1999.90;999.90;;;8.60;99.90;;;;;;5048748;28;20834;-74
2023/12/19 00:56:57;;;;;;;1999.90;999.90;;;8.60;99.90;;;;;;5048132;28;20431;-75
2023/12/19 00:59:23;;;;;;;1999.90;999.90;;;8.70;99.90;;;;;;5048358;28;20474;-76
2023/12/19 01:01:50;;;;;;;1999.90;999.90;;;8.70;99.90;;;;;;5049649;28;20417;-75
2023/12/19 01:04:19;;;;;;;1999.90;999.90;;;8.70;99.90;;;;;;5050438;28;20466;-76
2023/12/19 01:06:46;;;;;;;1999.90;999.90;;;8.80;99.90;;;;;;5048038;28;20907;-75
2023/12/19 01:09:13;;;;;;;1999.90;999.90;;;8.70;99.90;;;;;;5049782;28;20421;-75
2023/12/19 01:11:41;;;;;;;1999.90;999.90;;;8.80;99.90;;;;;;5050032;28;20888;-75
2023/12/19 01:14:08;;;;;;;1999.90;999.90;;;8.90;99.90;;;;;;5049548;28;20895;-74
2023/12/19 01:16:35;;;;;;;1999.90;999.90;;;9.00;99.90;;;;;;5050203;28;20417;-73
2023/12/19 01:19:03;;;;;;;1999.90;999.90;;;9.20;99.90;;;;;;5049353;28;20444;-74
2023/12/19 01:21:29;;;;;;;1999.90;999.90;;;9.20;99.90;;;;;;5047933;28;20508;-75
2023/12/19 01:23:56;;;;;;;1999.90;999.90;;;9.40;99.90;;;;;;5050579;28;20463;-75
2023/12/19 01:26:22;;;;;;;1999.90;999.90;;;9.50;99.90;;;;;;5049174;28;20463;-74
2023/12/19 01:28:50;;;;;;;1999.90;999.90;;;9.50;99.90;;;;;;5047657;28;20413;-75
2023/12/19 01:31:17;;;;;;;1999.90;999.90;;;9.50;99.90;;;;;;5048670;28;20471;-76
2023/12/19 01:33:44;;;;;;;1999.90;999.90;;;9.60;99.90;;;;;;5048561;28;20413;-75
2023/12/19 01:36:10;;;;;;;1999.90;999.90;;;9.60;99.90;;;;;;5044563;28;20471;-76
2023/12/19 01:38:37;;;;;;;1999.90;999.90;;;9.80;99.90;;;;;;5046749;28;20433;-72
2023/12/19 01:41:04;;;;;;;1999.90;999.90;;;9.60;99.90;;;;;;5047564;28;20492;-76
2023/12/19 01:43:31;;;;;;;1999.90;999.90;;;9.60;99.90;;;;;;5049731;28;20417;-75
2023/12/19 01:45:59;;;;;;;1999.90;999.90;;;9.50;99.90;;;;;;5050939;28;20409;-75
2023/12/19 01:48:27;;;;;;;1999.90;999.90;;;9.60;99.90;;;;;;5051974;28;20428;-76
2023/12/19 01:50:55;;;;;;;1999.90;999.90;;;9.60;99.90;;;;;;5049862;28;20429;-75
2023/12/19 01:53:24;;;;;;;1999.90;999.90;;;9.60;99.90;;;;;;5051977;28;20413;-76
2023/12/19 01:55:53;;;;;;;1999.90;999.90;;;9.70;99.90;;;;;;5051808;28;20488;-75
2023/12/19 01:58:21;;;;;;;1999.90;999.90;;;9.70;99.90;;;;;;5053362;28;20842;-75
2023/12/19 02:00:48;;;;;;;1999.90;999.90;;;9.50;99.90;;;;;;5053230;28;20827;-75
2023/12/19 02:03:16;;;;;;;1999.90;999.90;;;9.40;99.90;;;;;;5053577;28;20413;-75
2023/12/19 02:05:48;;;;;;;1999.90;999.90;;;9.40;99.90;;;;;;5048594;28;20433;-76
2023/12/19 02:08:14;;;;;;;1999.90;999.90;;;9.50;99.90;;;;;;5054578;28;20441;-76
2023/12/19 02:10:42;;;;;;;1999.90;999.90;;;9.60;99.90;;;;;;5055136;28;20405;-71
2023/12/19 02:13:08;;;;;;;1999.90;999.90;;;9.50;99.90;;;;;;5054648;28;20413;-75
2023/12/19 02:15:35;;;;;;;1999.90;999.90;;;9.30;99.90;;;;;;5053268;28;20462;-73
2023/12/19 02:18:14;;;;;;;1999.90;999.90;;;9.30;99.90;;;;;;5052142;28;20429;-71
2023/12/19 02:20:42;;;;;;;1999.90;999.90;;;9.30;99.90;;;;;;5050073;28;20433;-75
2023/12/19 02:23:10;;;;;;;1999.90;999.90;;;9.20;99.90;;;;;;5053306;28;20500;-75
2023/12/19 02:25:37;;;;;;;1999.90;999.90;;;9.30;99.90;;;;;;5054524;28;20447;-75
2023/12/19 02:28:04;;;;;;;1999.90;999.90;;;9.30;99.90;;;;;;5053554;28;20411;-76
2023/12/19 02:30:31;;;;;;;1999.90;999.90;;;9.10;99.90;;;;;;5053405;28;20492;-75
2023/12/19 02:32:58;;;;;;;1999.90;999.90;;;9.00;99.90;;;;;;5054373;28;20467;-73
2023/12/19 02:35:25;;;;;;;1999.90;999.90;;;8.90;99.90;;;;;;5052947;28;21164;-75
2023/12/19 02:37:52;;;;;;;1999.90;999.90;;;8.90;99.90;;;;;;5053123;28;20498;-75
2023/12/19 02:40:19;;;;;;;1999.90;999.90;;;8.90;99.90;;;;;;5053527;28;20487;-74
2023/12/19 02:42:49;;;;;;;1999.90;999.90;;;8.90;99.90;;;;;;5054171;28;20416;-75
2023/12/19 02:45:16;;;;;;;1999.90;999.90;;;8.90;99.90;;;;;;5054147;28;20420;-76
2023/12/19 02:47:43;;;;;;;1999.90;999.90;;;8.90;99.90;;;;;;5052438;28;20421;-75
2023/12/19 02:50:11;;;;;;;1999.90;999.90;;;8.90;99.90;;;;;;5049542;28;20422;-76
2023/12/19 02:52:37;;;;;;;1999.90;999.90;;;9.00;99.90;;;;;;5052562;28;20432;-75
2023/12/19 02:55:05;;;;;;;1999.90;999.90;;;8.90;99.90;;;;;;5048116;28;20899;-76
2023/12/19 02:57:33;;;;;;;1999.90;999.90;;;8.90;99.90;;;;;;5050391;28;20490;-78
2023/12/19 03:00:00;;;;;;;1999.90;999.90;;;8.80;99.90;;;;;;5054239;28;20432;-76
2023/12/19 03:02:26;;;;;;;1999.90;999.90;;;8.80;99.90;;;;;;5053919;28;20993;-76
2023/12/19 03:04:53;;;;;;;1999.90;999.90;;;8.90;99.90;;;;;;5052009;28;20474;-73
2023/12/19 03:07:20;;;;;;;1999.90;999.90;;;8.90;99.90;;;;;;5052952;28;20425;-77
2023/12/19 03:09:46;;;;;;;1999.90;999.90;;;9.10;99.90;;;;;;5054292;28;20844;-76
2023/12/19 03:12:13;;;;;;;1999.90;999.90;;;9.10;99.90;;;;;;5052578;28;20432;-76
2023/12/19 03:14:41;;;;;;;1999.90;999.90;;;9.10;99.90;;;;;;5054329;28;20891;-74
2023/12/19 03:17:08;;;;;;;1999.90;999.90;;;9.10;99.90;;;;;;5053303;28;20409;-75
2023/12/19 03:19:34;;;;;;;1999.90;999.90;;;9.00;99.90;;;;;;5053497;28;20775;-76
2023/12/19 03:22:01;;;;;;;1999.90;999.90;;;9.10;99.90;;;;;;5053793;28;20433;-76
2023/12/19 03:24:28;;;;;;;1999.90;999.90;;;8.90;99.90;;;;;;5054044;28;20417;-74
2023/12/19 03:26:55;;;;;;;1999.90;999.90;;;8.90;99.90;;;;;;5049529;28;20915;-76
2023/12/19 03:29:22;;;;;;;1999.90;999.90;;;9.00;99.90;;;;;;5051722;28;21095;-76
2023/12/19 03:31:50;;;;;;;1999.90;999.90;;;9.00;99.90;;;;;;5051860;28;20413;-75
2023/12/19 03:34:17;;;;;;;1999.90;999.90;;;9.00;99.90;;;;;;5051784;28;20498;-74
2023/12/19 03:36:43;;;;;;;1999.90;999.90;;;9.00;99.90;;;;;;5051626;28;20417;-75
2023/12/19 03:39:10;;;;;;;1999.90;999.90;;;9.20;99.90;;;;;;5051719;28;20409;-75
2023/12/19 03:41:37;;;;;;;1999.90;999.90;;;9.20;99.90;;;;;;5050758;28;20433;-76
2023/12/19 03:44:04;;;;;;;1999.90;999.90;;;9.20;99.90;;;;;;5052634;28;20903;-76
2023/12/19 03:46:30;;;;;;;1999.90;999.90;;;9.10;99.90;;;;;;5053515;28;20413;-76
2023/12/19 03:48:58;;;;;;;1999.90;999.90;;;8.90;99.90;;;;;;5053145;28;20416;-73
2023/12/19 03:51:25;;;;;;;1999.90;999.90;;;8.80;99.90;;;;;;5053499;28;20429;-76
2023/12/19 03:53:52;;;;;;;1999.90;999.90;;;8.70;99.90;;;;;;5052918;28;20429;-75
2023/12/19 03:56:18;;;;;;;1999.90;999.90;;;8.50;99.90;;;;;;5047699;28;20526;-76
2023/12/19 03:58:45;;;;;;;1999.90;999.90;;;8.40;99.90;;;;;;5047808;28;20437;-79
2023/12/19 04:01:12;;;;;;;1999.90;999.90;;;8.50;99.90;;;;;;5052748;28;20482;-75
2023/12/19 04:03:39;;;;;;;1999.90;999.90;;;8.50;99.90;;;;;;5052507;28;20895;-75
2023/12/19 04:06:07;;;;;;;1999.90;999.90;;;8.20;99.90;;;;;;5051580;28;20413;-75
2023/12/19 04:08:34;;;;;;;1999.90;999.90;;;8.70;99.90;;;;;;5052527;28;20417;-74
2023/12/19 04:11:01;;;;;;;1999.90;999.90;;;8.80;99.90;;;;;;5050498;28;20420;-74
2023/12/19 04:13:29;;;;;;;1999.90;999.90;;;8.80;99.90;;;;;;5049259;28;20467;-74
2023/12/19 04:15:55;;;;;;;1999.90;999.90;;;9.00;99.90;;;;;;5051237;28;20802;-74
2023/12/19 04:18:22;;;;;;;1999.90;999.90;;;8.90;99.90;;;;;;5049983;28;20475;-71
2023/12/19 04:20:49;;;;;;;1999.90;999.90;;;8.90;99.90;;;;;;5049655;28;20946;-76
2023/12/19 04:23:17;;;;;;;1999.90;999.90;;;9.00;99.90;;;;;;5052609;28;20410;-75
2023/12/19 04:25:43;;;;;;;1999.90;999.90;;;9.10;99.90;;;;;;5052656;28;20917;-74
2023/12/19 04:28:10;;;;;;;1999.90;999.90;;;9.00;99.90;;;;;;5049438;28;20477;-75
2023/12/19 04:30:37;;;;;;;1999.90;999.90;;;8.90;99.90;;;;;;5050566;28;20413;-75
2023/12/19 04:33:04;;;;;;;1999.90;999.90;;;8.80;99.90;;;;;;5050420;28;20413;-73
2023/12/19 04:35:30;;;;;;;1999.90;999.90;;;8.50;99.90;;;;;;5050565;28;20443;-75
2023/12/19 04:37:57;;;;;;;1999.90;999.90;;;8.50;99.90;;;;;;5050113;28;20409;-74
2023/12/19 04:40:25;;;;;;;1999.90;999.90;;;8.60;99.90;;;;;;5049715;28;21304;-73
2023/12/19 04:42:51;;;;;;;1999.90;999.90;;;8.80;99.90;;;;;;5045334;28;20439;-74
2023/12/19 04:45:18;;;;;;;1999.90;999.90;;;8.80;99.90;;;;;;5050415;28;20413;-75
2023/12/19 04:47:45;;;;;;;1999.90;999.90;;;8.80;99.90;;;;;;5050319;28;20838;-75
2023/12/19 04:50:11;;;;;;;1999.90;999.90;;;8.80;99.90;;;;;;5050960;28;20520;-75
2023/12/19 04:52:39;;;;;;;1999.90;999.90;;;8.90;99.90;;;;;;5051307;28;20910;-75
2023/12/19 04:55:06;;;;;;;1999.90;999.90;;;8.80;99.90;;;;;;5049283;28;20413;-75
2023/12/19 04:57:34;;;;;;;1999.90;999.90;;;8.80;99.90;;;;;;5050634;28;20522;-75
2023/12/19 05:00:01;;;;;;;1999.90;999.90;;;8.80;99.90;;;;;;5049394;28;20449;-74
2023/12/19 05:02:28;;;;;;;1999.90;999.90;;;8.70;99.90;;;;;;5050098;28;20437;-75
2023/12/19 05:04:54;;;;;;;1999.90;999.90;;;8.70;99.90;;;;;;5050045;28;20413;-75
2023/12/19 05:07:21;;;;;;;1999.90;999.90;;;8.60;99.90;;;;;;5049430;28;20961;-75
2023/12/19 05:09:48;;;;;;;1999.90;999.90;;;8.60;99.90;;;;;;5049654;28;20823;-75
2023/12/19 05:12:14;;;;;;;1999.90;999.90;;;8.60;99.90;;;;;;5048657;28;20428;-75
2023/12/19 05:14:42;;;;;;;1999.90;999.90;;;8.60;99.90;;;;;;5050026;28;20409;-74
2023/12/19 05:17:09;;;;;;;1999.90;999.90;;;8.70;99.90;;;;;;5049514;28;20413;-73
2023/12/19 05:19:35;;;;;;;1999.90;999.90;;;8.90;99.90;;;;;;5050927;28;20807;-75
2023/12/19 05:22:02;;;;;;;1999.90;999.90;;;9.00;99.90;;;;;;5050497;28;20506;-75
2023/12/19 05:24:32;;;;;;;1999.90;999.90;;;9.10;99.90;;;;;;5050525;28;20420;-75
2023/12/19 05:26:59;;;;;;;1999.90;999.90;;;9.20;99.90;;;;;;5047322;28;20989;-74
2023/12/19 05:29:26;;;;;;;1999.90;999.90;;;9.20;99.90;;;;;;5046201;28;20452;-73
2023/12/19 05:31:54;;;;;;;1999.90;999.90;;;9.20;99.90;;;;;;5053615;28;20827;-75
2023/12/19 05:34:20;;;;;;;1999.90;999.90;;;9.20;99.90;;;;;;5053641;28;20471;-75
2023/12/19 05:36:47;;;;;;;1999.90;999.90;;;9.30;99.90;;;;;;5056124;28;20826;-76
2023/12/19 05:39:14;;;;;;;1999.90;999.90;;;9.20;99.90;;;;;;5055500;28;20413;-75
2023/12/19 05:41:42;;;;;;;1999.90;999.90;;;9.20;99.90;;;;;;5053592;28;20476;-74
2023/12/19 05:44:10;;;;;;;1999.90;999.90;;;9.10;99.90;;;;;;5050735;28;20504;-75
2023/12/19 05:46:36;;;;;;;1999.90;999.90;;;9.00;99.90;;;;;;5053482;28;20509;-75
2023/12/19 05:49:04;;;;;;;1999.90;999.90;;;9.00;99.90;;;;;;5054284;28;20471;-76
2023/12/19 05:51:31;;;;;;;1999.90;999.90;;;9.10;99.90;;;;;;5055677;28;20466;-75
2023/12/19 05:53:59;;;;;;;1999.90;999.90;;;9.00;99.90;;;;;;5055520;28;20418;-78
2023/12/19 05:56:26;;;;;;;1999.90;999.90;;;9.10;99.90;;;;;;5055109;28;20539;-72
2023/12/19 05:58:53;;;;;;;1999.90;999.90;;;9.10;99.90;;;;;;5055284;28;20413;-76
2023/12/19 06:01:21;;;;;;;1999.90;999.90;;;9.20;99.90;;;;;;5052681;28;20433;-75
2023/12/19 06:03:47;;;;;;;1999.90;999.90;;;9.10;99.90;;;;;;5053301;28;20426;-72
2023/12/19 06:06:15;;;;;;;1999.90;999.90;;;9.10;99.90;;;;;;5053311;28;20474;-75
2023/12/19 06:08:43;;;;;;;1999.90;999.90;;;9.10;99.90;;;;;;5052696;28;20891;-73
2023/12/19 06:11:10;;;;;;;1999.90;999.90;;;9.10;99.90;;;;;;5050371;28;20626;-74
2023/12/19 06:13:36;;;;;;;1999.90;999.90;;;9.10;99.90;;;;;;5053450;28;20413;-74
2023/12/19 06:16:04;;;;;;;1999.90;999.90;;;9.30;99.90;;;;;;5052841;28;20424;-75
2023/12/19 06:18:30;;;;;;;1999.90;999.90;;;9.30;99.90;;;;;;5053216;28;20572;-74
2023/12/19 06:20:59;;;;;;;1999.90;999.90;;;9.30;99.90;;;;;;5052911;28;20429;-73
2023/12/19 06:23:27;;;;;;;1999.90;999.90;;;9.30;99.90;;;;;;5052727;28;20915;-75
2023/12/19 06:25:54;;;;;;;1999.90;999.90;;;9.20;99.90;;;;;;5049587;28;20433;-74
2023/12/19 06:28:21;;;;;;;1999.90;999.90;;;9.10;99.90;;;;;;5052539;28;20462;-75
2023/12/19 06:30:47;;;;;;;1999.90;999.90;;;9.10;99.90;;;;;;5052979;28;20541;-75
2023/12/19 06:33:14;;;;;;;1999.90;999.90;;;9.10;99.90;;;;;;5052983;28;20420;-72
2023/12/19 06:35:41;;;;;;;1999.90;999.90;;;9.10;99.90;;;;;;5052031;28;20854;-74
2023/12/19 06:38:08;;;;;;;1999.90;999.90;;;9.30;99.90;;;;;;5045477;28;20500;-75
2023/12/19 06:40:37;;;;;;;1999.90;999.90;;;9.50;99.90;;;;;;5050682;28;20483;-74
2023/12/19 06:43:05;;;;;;;1999.90;999.90;;;9.60;99.90;;;;;;5052033;28;20433;-73
2023/12/19 06:45:33;;;;;;;1999.90;999.90;;;9.70;99.90;;;;;;5053737;28;20414;-74
2023/12/19 06:48:01;;;;;;;1999.90;999.90;;;9.70;99.90;;;;;;5051652;28;20417;-75
2023/12/19 06:50:28;;;;;;;1999.90;999.90;;;9.70;99.90;;;;;;5050839;28;20416;-73
2023/12/19 06:52:54;;;;;;;1999.90;999.90;;;9.70;99.90;;;;;;5050750;28;20432;-75
2023/12/19 06:55:22;;;;;;;1999.90;999.90;;;9.90;99.90;;;;;;5050614;28;20433;-74
2023/12/19 06:57:49;;;;;;;1999.90;999.90;;;9.70;99.90;;;;;;5051795;28;20413;-73
2023/12/19 07:00:17;;;;;;;1999.90;999.90;;;9.70;99.90;;;;;;5052145;28;20417;-75
2023/12/19 07:02:43;;;;;;;1999.90;999.90;;;9.70;99.90;;;;;;5049508;28;20472;-75
2023/12/19 07:05:10;;;;;;;1999.90;999.90;;;9.80;99.90;;;;;;5051739;28;20417;-75
2023/12/19 07:07:36;;;;;;;1999.90;999.90;;;9.90;99.90;;;;;;5047496;28;20422;-75
2023/12/19 07:10:03;;;;;;;1999.90;999.90;;;9.90;99.90;;;;;;5051446;28;20504;-74
2023/12/19 07:12:30;;;;;;;1999.90;999.90;;;9.90;99.90;;;;;;5051626;28;20484;-74
2023/12/19 07:14:59;;;;;;;1999.90;999.90;;;10.00;99.90;;;;;;5051806;28;20410;-74
2023/12/19 07:17:25;;;;;;;1999.90;999.90;;;10.10;99.90;;;;;;5051332;28;20418;-74
2023/12/19 07:19:52;;;;;;;1999.90;999.90;;;10.10;99.90;;;;;;5051268;28;20480;-74
2023/12/19 07:22:19;;;;;;;1999.90;999.90;;;10.00;99.90;;;;;;5049555;28;20491;-74
2023/12/19 07:24:46;;;;;;;1999.90;999.90;;;9.90;99.90;;;;;;5051442;28;20414;-74
2023/12/19 07:27:12;;;;;;;1999.90;999.90;;;9.80;99.90;;;;;;5051234;28;20918;-74
2023/12/19 07:29:39;;;;;;;1999.90;999.90;;;9.80;99.90;;;;;;5049532;28;20433;-74
2023/12/19 07:32:08;;;;;;;1999.90;999.90;;;9.70;99.90;;;;;;5051284;28;20463;-74
2023/12/19 07:34:35;;;;;;;1999.90;999.90;;;9.70;99.90;;;;;;5051255;28;20441;-74
2023/12/19 07:37:02;;;;;;;1999.90;999.90;;;9.70;99.90;;;;;;5047921;28;20463;-74
2023/12/19 07:39:29;;;;;;;1999.90;999.90;;;9.70;99.90;;;;;;5050987;28;20420;-73
2023/12/19 07:41:56;;;;;;;1999.90;999.90;;;9.80;99.90;;;;;;5051455;28;20475;-73
2023/12/19 07:44:23;;;;;;;1999.90;999.90;;;9.70;99.90;;;;;;5049943;28;20583;-74
2023/12/19 07:46:49;;;;;;;1999.90;999.90;;;9.70;99.90;;;;;;5046421;28;20425;-73
2023/12/19 07:49:18;;;;;;;1999.90;999.90;;;9.80;99.90;;;;;;5050000;28;20655;-74
2023/12/19 07:51:44;;;;;;;1999.90;999.90;;;10.10;99.90;;;;;;5043590;28;20431;-74
2023/12/19 07:54:11;;;;;;;1999.90;999.90;;;10.00;99.90;;;;;;5051443;28;20413;-73
2023/12/19 07:56:41;;;;;;;1999.90;999.90;;;10.00;99.90;;;;;;5048393;28;20421;-73
2023/12/19 07:59:07;;;;;;;1999.90;999.90;;;9.70;99.90;;;;;;5039748;28;20433;-73
2023/12/19 08:01:34;;;;;;;1999.90;999.90;;;9.70;99.90;;;;;;5048940;28;20475;-73
2023/12/19 08:04:00;;;;;;;1999.90;999.90;;;9.70;99.90;;;;;;5050755;28;20444;-73
2023/12/19 08:06:28;;;;;;;1999.90;999.90;;;9.70;99.90;;;;;;5050799;28;20413;-73
2023/12/19 08:08:55;;;;;;;1999.90;999.90;;;9.80;99.90;;;;;;5050945;28;20850;-75
2023/12/19 08:11:22;;;;;;;1999.90;999.90;;;9.70;99.90;;;;;;5051233;28;20891;-76
2023/12/19 08:13:50;;;;;;;1999.90;999.90;;;9.60;99.90;;;;;;5050330;28;20794;-74
2023/12/19 08:16:17;;;;;;;1999.90;999.90;;;9.60;99.90;;;;;;5049055;28;20476;-76
2023/12/19 08:18:43;;;;;;;1999.90;999.90;;;9.50;99.90;;;;;;5047533;28;20441;-73
2023/12/19 08:21:10;;;;;;;1999.90;999.90;;;9.50;99.90;;;;;;5049879;28;20923;-73
2023/12/19 08:23:39;;;;;;;1999.90;999.90;;;9.50;99.90;;;;;;5050374;28;20950;-74
2023/12/19 08:26:10;;;;;;;1999.90;999.90;;;9.50;99.90;;;;;;5050994;28;20424;-76
2023/12/19 08:28:36;;;;;;;1999.90;999.90;;;9.70;99.90;;;;;;5053224;28;20500;-75
2023/12/19 08:31:03;;;;;;;1999.90;999.90;;;9.70;99.90;;;;;;5052173;28;20410;-74
2023/12/19 08:33:30;;;;;;;1999.90;999.90;;;9.60;99.90;;;;;;5046260;28;20937;-74
2023/12/19 08:35:57;;;;;;;1999.90;999.90;;;9.50;99.90;;;;;;5050396;28;20571;-75
2023/12/19 08:38:23;;;;;;;1999.90;999.90;;;9.30;99.90;;;;;;5052822;28;21005;-74
2023/12/19 08:40:51;;;;;;;1999.90;999.90;;;9.30;99.90;;;;;;5051964;28;20918;-76
2023/12/19 08:43:19;;;;;;;1999.90;999.90;;;9.30;99.90;;;;;;5049987;28;20911;-74
2023/12/19 08:45:46;;;;;;;1999.90;999.90;;;9.40;99.90;;;;;;5052660;28;20427;-75
2023/12/19 08:48:13;;;;;;;1999.90;999.90;;;9.30;99.90;;;;;;5052918;28;20499;-71
2023/12/19 08:50:40;;;;;;;1999.90;999.90;;;9.20;99.90;;;;;;5051774;28;20417;-75
2023/12/19 08:53:06;;;;;;;1999.90;999.90;;;9.10;99.90;;;;;;5050671;28;20666;-74
2023/12/19 08:55:33;;;;;;;1999.90;999.90;;;9.10;99.90;;;;;;5049960;28;20830;-74
2023/12/19 08:58:01;;;;;;;1999.90;999.90;;;9.10;99.90;;;;;;5049198;28;20437;-74
2023/12/19 09:00:28;;;;;;;1999.90;999.90;;;9.30;99.90;;;;;;5050338;28;20463;-74
2023/12/19 09:02:54;;;;;;;1999.90;999.90;;;9.30;99.90;;;;;;5049145;28;20807;-76
2023/12/19 09:05:22;;;;;;;1999.90;999.90;;;9.40;99.90;;;;;;5049609;28;20959;-74
2023/12/19 09:07:48;;;;;;;1999.90;999.90;;;9.70;99.90;;;;;;5050065;28;20911;-76
2023/12/19 09:10:16;;;;;;;1999.90;999.90;;;9.80;99.90;;;;;;5050418;28;20413;-73
2023/12/19 09:12:44;;;;;;;1999.90;999.90;;;10.00;99.90;;;;;;5049164;28;20849;-73
2023/12/19 09:15:12;;;;;;;1999.90;999.90;;;10.20;99.90;;;;;;5049889;28;20409;-74
2023/12/19 09:17:38;;;;;;;1999.90;999.90;;;10.30;99.90;;;;;;5049688;28;20409;-76
2023/12/19 09:20:07;;;;;;;1999.90;999.90;;;10.30;99.90;;;;;;5049321;28;20832;-74
2023/12/19 09:22:34;;;;;;;1999.90;999.90;;;10.40;99.90;;;;;;5050165;28;20433;-73
2023/12/19 09:25:01;;;;;;;1999.90;999.90;;;10.50;99.90;;;;;;5049833;28;21071;-74
2023/12/19 09:27:28;;;;;;;1999.90;999.90;;;10.60;99.90;;;;;;5049830;28;20440;-74
2023/12/19 09:29:54;;;;;;;1999.90;999.90;;;10.50;99.90;;;;;;5050111;28;20475;-74
2023/12/19 09:32:22;;;;;;;1999.90;999.90;;;10.50;99.90;;;;;;5050522;28;20949;-74
2023/12/19 09:34:49;;;;;;;1999.90;999.90;;;10.40;99.90;;;;;;5051429;28;20830;-75
2023/12/19 09:37:16;;;;;;;1999.90;999.90;;;10.50;99.90;;;;;;5051557;28;20500;-76
2023/12/19 09:39:46;;;;;;;1999.90;999.90;;;10.40;99.90;;;;;;5049628;28;20887;-75
2023/12/19 09:42:17;;;;;;;1999.90;999.90;;;10.50;99.90;;;;;;5045385;28;20460;-75
2023/12/19 09:44:43;;;;;;;1999.90;999.90;;;10.50;99.90;;;;;;5044183;28;20522;-75
2023/12/19 09:47:11;;;;;;;1999.90;999.90;;;10.50;99.90;;;;;;5049582;28;20417;-75
2023/12/19 09:49:43;;;;;;;1999.90;999.90;;;10.60;99.90;;;;;;5050259;28;20417;-76
2023/12/19 09:52:12;;;;;;;1999.90;999.90;;;10.60;99.90;;;;;;5049036;28;20444;-77
2023/12/19 09:54:40;;;;;;;1999.90;999.90;;;10.70;99.90;;;;;;5050505;28;20419;-76
2023/12/19 09:57:08;;;;;;;1999.90;999.90;;;10.70;99.90;;;;;;5043275;28;20425;-75
2023/12/19 09:59:36;;;;;;;1999.90;999.90;;;10.80;99.90;;;;;;5050418;28;20463;-76
2023/12/19 10:02:04;;;;;;;1999.90;999.90;;;10.80;99.90;;;;;;5051032;28;20907;-74
2023/12/19 10:04:31;;;;;;;1999.90;999.90;;;10.80;99.90;;;;;;5045721;28;20439;-75
2023/12/19 10:06:59;;;;;;;1999.90;999.90;;;10.90;99.90;;;;;;5049175;28;20477;-75
2023/12/19 10:09:26;;;;;;;1999.90;999.90;;;10.90;99.90;;;;;;5049397;28;20422;-75
2023/12/19 10:12:07;;;;;;;1999.90;999.90;;;11.00;99.90;;;;;;5047288;28;20503;-75
2023/12/19 10:14:34;;;;;;;1999.90;999.90;;;11.00;99.90;;;;;;5049450;28;20413;-76
2023/12/19 10:17:02;;;;;;;1999.90;999.90;;;11.00;99.90;;;;;;5050769;28;20433;-76
2023/12/19 10:19:29;;;;;;;1999.90;999.90;;;11.00;99.90;;;;;;5048508;28;20426;-75
2023/12/19 10:22:10;;;;;;;1999.90;999.90;;;11.00;99.90;;;;;;5052638;28;20420;-74
2023/12/19 10:24:37;;;;;;;1999.90;999.90;;;11.20;99.90;;;;;;5053299;28;20421;-75
2023/12/19 10:27:05;;;;;;;1999.90;999.90;;;11.20;99.90;;;;;;5053031;28;20470;-75
2023/12/19 10:29:36;;;;;;;1999.90;999.90;;;11.10;99.90;;;;;;5053389;28;20417;-77
2023/12/19 10:32:13;;;;;;;1999.90;999.90;;;11.00;99.90;;;;;;5050107;28;20451;-76
2023/12/19 10:34:40;;;;;;;1999.90;999.90;;;11.00;99.90;;;;;;5051873;28;20433;-75
2023/12/19 10:37:12;;;;;;;1999.90;999.90;;;11.00;99.90;;;;;;5052135;28;20423;-75
2023/12/19 10:39:40;;;;;;;1999.90;999.90;;;11.00;99.90;;;;;;5050623;28;20429;-75
2023/12/19 10:42:09;;;;;;;1999.90;999.90;;;11.00;99.90;;;;;;5052816;28;20423;-75
2023/12/19 10:44:38;;;;;;;1999.90;999.90;;;10.90;99.90;;;;;;5054158;28;20521;-76
2023/12/19 10:47:06;;;;;;;1999.90;999.90;;;10.70;99.90;;;;;;5053265;28;20497;-74
2023/12/19 10:49:32;;;;;;;1999.90;999.90;;;10.70;99.90;;;;;;5046960;28;20415;-75
2023/12/19 10:52:05;;;;;;;1999.90;999.90;;;10.60;99.90;;;;;;5047048;28;20437;-76
2023/12/19 10:54:35;;;;;;;1999.90;999.90;;;10.70;99.90;;;;;;5051529;28;20435;-75
2023/12/19 10:57:06;;;;;;;1999.90;999.90;;;10.80;99.90;;;;;;5052748;28;20425;-75
2023/12/19 10:59:41;;;;;;;1999.90;999.90;;;10.80;99.90;;;;;;5052494;28;20507;-75
2023/12/19 11:02:33;;;;;;;1999.90;999.90;;;10.70;99.90;;;;;;5052743;28;20491;-75
2023/12/19 11:05:10;;;;;;;1999.90;999.90;;;10.80;99.90;;;;;;5052474;28;20887;-74
2023/12/19 11:07:38;;;;;;;1999.90;999.90;;;10.70;99.90;;;;;;5051784;28;20519;-75
2023/12/19 11:10:08;;;;;;;1999.90;999.90;;;10.70;99.90;;;;;;5046431;28;20437;-75
2023/12/19 11:12:36;;;;;;;1999.90;999.90;;;10.70;99.90;;;;;;5052455;28;20409;-75
2023/12/19 11:15:05;;;;;;;1999.90;999.90;;;10.80;99.90;;;;;;5052484;28;20417;-75
2023/12/19 11:17:39;;;;;;;1999.90;999.90;;;10.90;99.90;;;;;;5051992;28;20417;-74
2023/12/19 11:20:16;;;;;;;1999.90;999.90;;;10.90;99.90;;;;;;5042565;28;20670;-75
2023/12/19 11:22:54;;;;;;;1999.90;999.90;;;10.80;99.90;;;;;;5052154;28;20429;-74
2023/12/19 11:25:30;;;;;;;1999.90;999.90;;;10.90;99.90;;;;;;5052421;28;20444;-75
2023/12/19 11:28:01;;;;;;;1999.90;999.90;;;10.80;99.90;;;;;;5051989;28;20467;-75
2023/12/19 11:30:36;;;;;;;1999.90;999.90;;;10.70;99.90;;;;;;5052623;28;20773;-75
2023/12/19 11:33:03;;;;;;;1999.90;999.90;;;10.70;99.90;;;;;;5051830;28;20451;-75
2023/12/19 11:35:31;;;;;;;1999.90;999.90;;;10.80;99.90;;;;;;5044883;28;20435;-76
2023/12/19 11:38:24;;;;;;;1999.90;999.90;;;10.80;99.90;;;;;;5048120;28;20498;-76
2023/12/19 11:40:53;;;;;;;1999.90;999.90;;;10.90;99.90;;;;;;5043709;28;20424;-74
2023/12/19 11:43:51;;;;;;;1999.90;999.90;;;10.70;99.90;;;;;;5050309;28;20463;-75
2023/12/19 11:46:18;;;;;;;1999.90;999.90;;;10.80;99.90;;;;;;5053425;28;20499;-74
2023/12/19 11:48:49;;;;;;;1999.90;999.90;;;10.70;99.90;;;;;;5050620;28;20488;-73
2023/12/19 11:51:46;;;;;;;1999.90;999.90;;;10.70;99.90;;;;;;5050355;28;20424;-75
2023/12/19 11:54:13;;;;;;;1999.90;999.90;;;10.70;99.90;;;;;;5045013;28;20441;-75
2023/12/19 11:56:42;;;;;;;1999.90;999.90;;;10.60;99.90;;;;;;5052001;28;20525;-75
2023/12/19 11:59:09;;;;;;;1999.90;999.90;;;10.40;99.90;;;;;;5050341;28;20406;-75
2023/12/19 12:01:40;;;;;;;1999.90;999.90;;;10.40;99.90;;;;;;5048614;28;20425;-77
2023/12/19 12:04:07;;;;;;;1999.90;999.90;;;10.30;99.90;;;;;;5052184;28;20925;-75
2023/12/19 12:06:35;;;;;;;1999.90;999.90;;;10.30;99.90;;;;;;5053098;28;20784;-77
2023/12/19 12:09:05;;;;;;;1999.90;999.90;;;10.20;99.90;;;;;;5051874;28;20541;-74